DAL742 EGCC-EGKK
Flight info
| Callsign | DAL742 |
|---|---|
| Flight time | N/A |
| Altitude | 19000 |
| Route | LISTO2S LISTO L612 HON N859 KIDLI KIDLI1G |
| Aircraft | L101/H-SDFGHIRWXY/S |
Departure
| Time | N/A |
|---|---|
| Airport | Manchester Airport (EGCC) |
Arrival
| Time | 2026-04-30 17:48 |
|---|---|
| Airport | London Gatwick Airport (EGKK) |
| Time | Latitude | Longitude | Altitude | Speed | Heading |
|---|---|---|---|---|---|
| 2026-04-30 17:39 | 51.03813 | -0.47857 | 2888 ft | 240 kts | 264° |
| 2026-04-30 17:41 | 51.09324 | -0.59575 | 2072 ft | 187 kts | 53° |
| 2026-04-30 17:42 | 51.09815 | -0.55851 | 1563 ft | 176 kts | 92° |
| 2026-04-30 17:42 | 51.10655 | -0.50119 | 1721 ft | 168 kts | 81° |
| 2026-04-30 17:43 | 51.11024 | -0.47039 | 3760 ft | 139 kts | 86° |
| 2026-04-30 17:44 | 51.11703 | -0.42273 | 2856 ft | 146 kts | 84° |
| 2026-04-30 17:44 | 51.12311 | -0.37576 | 1838 ft | 136 kts | 82° |
| 2026-04-30 17:46 | 51.13373 | -0.29911 | 1490 ft | 141 kts | 84° |
| 2026-04-30 17:47 | 51.14155 | -0.23961 | 723 ft | 120 kts | 80° |
| 2026-04-30 17:48 | 51.14748 | -0.19477 | 216 ft | 43 kts | 78° |
| 2026-04-30 17:48 | 51.14996 | -0.18408 | 220 ft | 0 kts | 51° |
| 2026-04-30 17:50 | 51.14999 | -0.18402 | 220 ft | 2 kts | 51° |
| 2026-04-30 17:51 | 51.15095 | -0.18198 | 221 ft | 8 kts | 63° |
| 2026-04-30 17:52 | 51.15144 | -0.17945 | 223 ft | 0 kts | 77° |
| 2026-04-30 17:54 | 51.15204 | -0.17542 | 213 ft | 21 kts | 78° |
| 2026-04-30 17:55 | 51.15507 | -0.17422 | 212 ft | 1 kts | 347° |
| 2026-04-30 17:56 | 51.15604 | -0.17319 | 218 ft | 9 kts | 77° |
| 2026-04-30 17:57 | 51.15664 | -0.16895 | 218 ft | 5 kts | 78° |
| 2026-04-30 17:58 | 51.15648 | -0.16689 | 218 ft | 6 kts | 162° |
| 2026-04-30 17:59 | 51.15627 | -0.16680 | 210 ft | 0 kts | 164° |